Portada
METAR-TAF:

METAR-TAF

Aeropuertos :

Aeropuerto de Santa Rosa

Santa Rosa, Argentina

latitud: 36-34S, longitud: 064-16W, altitud: 190 m

Observación

El informe se hizo hace 21 horas y 47 minutos, a las 14:35 UTC
Viento 4 kt del norte-noroeste
Temperatura 5°C
Humedad 75%
Presión 1025 hPa
Visibilidad 10 km o más
sin nubes por debajo de 1500 m y sin presencia de cumulonimbus.

METAR: SAZR 011435Z 34004KT CAVOK 05/01 Q1025

Hora: 09:22 (12:22 UTC)


TAF: falta

Observaciones y pronósticos meteorológicos de más de 4000 aeropuertos (mensajes METAR y TAF).

Los puntos amarillos y rojos representan las estaciones disponibles.

Ponga el ratón en el punto deseado para ver el nombre de la estación.

Haga clic para ver las observaciones y los pronósticos meteorológicos.

Para cambiar el mapa : haga clic en los botones verdes con una cruz de color negro para hacer un zoom, en el botón verde con un guión para alejar o en las flechas verdes para mapas adyacentes.


METAR-TAF: